Time;durP1;ratioP1;P1;durP2;ratioP2;P2;SDS_P1;SDS_P2;PMS_P1;PMS_P2;Temp;Humidity;BMP_temperature;BMP_pressure;BME280_temperature;BME280_humidity;BME280_pressure;Samples;Min_cycle;Max_cycle;Signal;HPM_P1;HPM_P2
2022/12/15 00:39:42;;;;;;;1.52;1.42;;;;;;;;;;4546808;28;20104;-63
2022/12/15 00:41:53;;;;;;;1.70;1.60;;;;;;;;;;4544066;28;20414;-63
2022/12/15 00:44:03;;;;;;;1.70;1.60;;;;;;;;;;4543678;28;20049;-63
2022/12/15 00:48:42;;;;;;;2.08;1.50;;;;;;;;;;4545923;28;20558;-63
2022/12/15 00:50:53;;;;;;;1.60;1.50;;;;;;;;;;4545221;28;20040;-63
2022/12/15 01:20:22;;;;;;;1.52;1.42;;;;;;;;;;4548573;28;20116;-64
2022/12/15 01:22:32;;;;;;;1.70;1.60;;;;;;;;;;4548909;28;20037;-64
2022/12/15 01:24:45;;;;;;;1.40;1.30;;;;;;;;;;4539610;28;20499;-63
2022/12/15 01:26:56;;;;;;;1.98;1.50;;;;;;;;;;4548930;28;20500;-63
2022/12/15 01:29:06;;;;;;;1.50;1.40;;;;;;;;;;4547546;28;20607;-64
2022/12/15 01:31:17;;;;;;;1.90;1.67;;;;;;;;;;4547954;28;20104;-63
2022/12/15 01:33:27;;;;;;;1.88;1.60;;;;;;;;;;4551057;28;20103;-63
2022/12/15 01:35:37;;;;;;;1.60;1.50;;;;;;;;;;4550993;28;20043;-64
2022/12/15 01:37:48;;;;;;;1.65;1.52;;;;;;;;;;4549739;28;20024;-64
2022/12/15 01:42:27;;;;;;;1.60;1.50;;;;;;;;;;4547574;28;20035;-63
2022/12/15 01:44:38;;;;;;;1.90;1.70;;;;;;;;;;4548120;28;20036;-63
2022/12/15 01:46:50;;;;;;;1.42;1.33;;;;;;;;;;4548054;28;20047;-64
2022/12/15 01:49:20;;;;;;;1.50;1.35;;;;;;;;;;4547081;28;20176;-64
2022/12/15 01:51:32;;;;;;;1.67;1.58;;;;;;;;;;4547162;28;20130;-63
2022/12/15 01:53:58;;;;;;;1.50;1.40;;;;;;;;;;4548573;28;20087;-63
2022/12/15 01:56:09;;;;;;;1.63;1.52;;;;;;;;;;4549152;28;20602;-63
2022/12/15 01:58:20;;;;;;;1.50;1.40;;;;;;;;;;4547816;28;20044;-63
2022/12/15 02:00:31;;;;;;;1.50;1.40;;;;;;;;;;4548391;28;20036;-64
2022/12/15 02:02:41;;;;;;;1.73;1.42;;;;;;;;;;4546850;28;20041;-64
2022/12/15 02:04:55;;;;;;;1.60;1.50;;;;;;;;;;4548484;28;20041;-63
2022/12/15 02:07:05;;;;;;;1.63;1.45;;;;;;;;;;4547754;28;20131;-63
2022/12/15 02:09:16;;;;;;;1.40;1.30;;;;;;;;;;4547293;28;20539;-64
2022/12/15 02:11:29;;;;;;;1.50;1.40;;;;;;;;;;4547040;28;20470;-63
2022/12/15 02:13:55;;;;;;;1.50;1.40;;;;;;;;;;4547587;28;20040;-64
2022/12/15 02:16:24;;;;;;;1.55;1.45;;;;;;;;;;4545971;28;20037;-63
2022/12/15 02:18:37;;;;;;;1.83;1.50;;;;;;;;;;4546632;28;20592;-63
2022/12/15 02:21:01;;;;;;;1.70;1.50;;;;;;;;;;4547369;28;20150;-63
2022/12/15 02:23:30;;;;;;;1.55;1.40;;;;;;;;;;4549910;28;20103;-63
2022/12/15 02:25:40;;;;;;;1.73;1.55;;;;;;;;;;4547502;28;20033;-64
2022/12/15 02:27:58;;;;;;;1.67;1.52;;;;;;;;;;4550157;28;20028;-64
2022/12/15 02:30:17;;;;;;;2.25;1.58;;;;;;;;;;4549174;28;20049;-63
2022/12/15 02:32:30;;;;;;;2.15;1.50;;;;;;;;;;4547443;28;20029;-63
2022/12/15 02:34:46;;;;;;;1.55;1.45;;;;;;;;;;4547886;28;20029;-63
2022/12/15 02:36:58;;;;;;;1.48;1.38;;;;;;;;;;4547655;28;20681;-63
2022/12/15 02:39:10;;;;;;;1.40;1.30;;;;;;;;;;4549741;28;20044;-63
2022/12/15 02:41:31;;;;;;;1.50;1.40;;;;;;;;;;4547606;28;20025;-63
2022/12/15 02:43:41;;;;;;;2.00;1.80;;;;;;;;;;4549667;28;20036;-63
2022/12/15 02:46:15;;;;;;;1.40;1.30;;;;;;;;;;4547890;28;20518;-63
2022/12/15 02:48:43;;;;;;;1.80;1.50;;;;;;;;;;4548233;28;21322;-63
2022/12/15 02:51:03;;;;;;;1.95;1.42;;;;;;;;;;4548112;28;20801;-64
2022/12/15 02:53:16;;;;;;;1.40;1.30;;;;;;;;;;4542781;28;20264;-63
2022/12/15 02:55:45;;;;;;;1.45;1.35;;;;;;;;;;4547572;28;20501;-64
2022/12/15 02:57:55;;;;;;;1.45;1.35;;;;;;;;;;4550283;28;20025;-65
2022/12/15 03:00:08;;;;;;;1.60;1.50;;;;;;;;;;4548609;28;20040;-64
2022/12/15 03:02:18;;;;;;;1.50;1.40;;;;;;;;;;4547595;28;20067;-63
2022/12/15 03:04:32;;;;;;;1.40;1.30;;;;;;;;;;4546252;28;20071;-64
2022/12/15 03:06:42;;;;;;;1.42;1.27;;;;;;;;;;4547876;28;20600;-64
2022/12/15 03:08:53;;;;;;;1.63;1.50;;;;;;;;;;4546067;28;20044;-65
2022/12/15 03:11:03;;;;;;;1.60;1.50;;;;;;;;;;4546500;28;20369;-63
2022/12/15 03:13:13;;;;;;;1.55;1.40;;;;;;;;;;4548258;28;20037;-63
2022/12/15 03:15:24;;;;;;;1.50;1.40;;;;;;;;;;4547065;28;20888;-63
2022/12/15 03:17:34;;;;;;;1.40;1.30;;;;;;;;;;4548777;28;20040;-64
2022/12/15 03:19:44;;;;;;;1.55;1.45;;;;;;;;;;4545604;28;20045;-63
2022/12/15 03:21:54;;;;;;;1.58;1.30;;;;;;;;;;4537084;28;20111;-64
2022/12/15 03:24:05;;;;;;;1.60;1.50;;;;;;;;;;4548234;28;20138;-63
2022/12/15 03:26:15;;;;;;;1.48;1.38;;;;;;;;;;4547170;28;20044;-63
2022/12/15 03:28:26;;;;;;;1.50;1.40;;;;;;;;;;4547249;28;21034;-64
2022/12/15 03:30:36;;;;;;;1.50;1.40;;;;;;;;;;4547016;28;20040;-64
2022/12/15 03:32:46;;;;;;;1.75;1.55;;;;;;;;;;4546815;28;20063;-64
2022/12/15 03:34:57;;;;;;;1.50;1.40;;;;;;;;;;4546060;28;20028;-63
2022/12/15 03:37:08;;;;;;;1.70;1.60;;;;;;;;;;4545746;28;20040;-64
2022/12/15 03:39:18;;;;;;;1.63;1.50;;;;;;;;;;4546334;28;20516;-64
2022/12/15 03:41:28;;;;;;;1.40;1.30;;;;;;;;;;4545981;28;20033;-65
2022/12/15 03:43:39;;;;;;;1.48;1.38;;;;;;;;;;4545539;28;20047;-64
2022/12/15 03:45:49;;;;;;;1.30;1.20;;;;;;;;;;4532360;28;20025;-62
2022/12/15 03:47:59;;;;;;;1.77;1.55;;;;;;;;;;4544528;28;20727;-63
2022/12/15 03:50:10;;;;;;;1.60;1.50;;;;;;;;;;4546741;28;20041;-63
2022/12/15 03:52:21;;;;;;;1.48;1.38;;;;;;;;;;4545995;28;20127;-63
2022/12/15 03:54:31;;;;;;;1.40;1.30;;;;;;;;;;4546224;28;20052;-63
2022/12/15 03:56:42;;;;;;;1.50;1.40;;;;;;;;;;4547124;28;20123;-63
2022/12/15 03:58:52;;;;;;;1.40;1.30;;;;;;;;;;4544620;28;20489;-63
2022/12/15 04:01:09;;;;;;;1.40;1.30;;;;;;;;;;4545574;28;20040;-63
2022/12/15 04:03:20;;;;;;;1.33;1.23;;;;;;;;;;4543785;28;20051;-64
2022/12/15 04:05:32;;;;;;;1.55;1.45;;;;;;;;;;4547483;28;20044;-63
2022/12/15 04:07:42;;;;;;;1.48;1.35;;;;;;;;;;4545471;28;20059;-63
2022/12/15 04:09:52;;;;;;;1.48;1.38;;;;;;;;;;4543786;28;20039;-63
2022/12/15 04:12:02;;;;;;;1.58;1.48;;;;;;;;;;4545231;28;20033;-63
2022/12/15 04:14:13;;;;;;;1.50;1.40;;;;;;;;;;4546368;28;20061;-64
2022/12/15 04:16:23;;;;;;;1.60;1.45;;;;;;;;;;4544431;28;20025;-63
2022/12/15 04:18:33;;;;;;;1.42;1.33;;;;;;;;;;4535396;28;20052;-64
2022/12/15 04:20:44;;;;;;;1.42;1.33;;;;;;;;;;4547447;28;20074;-63
2022/12/15 04:22:54;;;;;;;1.45;1.23;;;;;;;;;;4536290;28;20081;-63
2022/12/15 05:32:08;;;;;;;1.50;1.40;;;;;;;;;;4544606;28;20065;-63
2022/12/15 05:34:20;;;;;;;1.30;1.20;;;;;;;;;;4545062;28;20108;-63
2022/12/15 05:36:30;;;;;;;1.40;1.30;;;;;;;;;;4546889;28;20127;-63
2022/12/15 05:38:40;;;;;;;1.48;1.38;;;;;;;;;;4543804;28;20582;-64
2022/12/15 05:40:51;;;;;;;1.60;1.38;;;;;;;;;;4544980;28;20113;-64
2022/12/15 05:43:01;;;;;;;1.52;1.42;;;;;;;;;;4544166;28;20124;-63
2022/12/15 05:45:11;;;;;;;1.52;1.42;;;;;;;;;;4545000;28;20033;-64
2022/12/15 05:47:21;;;;;;;1.40;1.30;;;;;;;;;;4547914;28;20037;-63
2022/12/15 05:49:32;;;;;;;1.60;1.40;;;;;;;;;;4547003;28;20510;-63
2022/12/15 05:51:43;;;;;;;1.50;1.40;;;;;;;;;;4547862;28;20067;-63
2022/12/15 05:53:53;;;;;;;1.40;1.30;;;;;;;;;;4548559;28;20516;-63
2022/12/15 05:56:05;;;;;;;1.42;1.33;;;;;;;;;;4547375;28;20067;-63
2022/12/15 05:58:15;;;;;;;1.30;1.20;;;;;;;;;;4548361;28;20762;-64
2022/12/15 06:00:26;;;;;;;1.55;1.40;;;;;;;;;;4536400;28;20037;-64
2022/12/15 06:02:36;;;;;;;1.50;1.40;;;;;;;;;;4547476;28;20041;-63
2022/12/15 06:04:46;;;;;;;1.40;1.30;;;;;;;;;;4547127;28;20040;-64
2022/12/15 06:06:57;;;;;;;1.52;1.30;;;;;;;;;;4534881;28;20041;-63
2022/12/15 06:09:07;;;;;;;1.33;1.23;;;;;;;;;;4548041;28;20588;-63
2022/12/15 06:11:18;;;;;;;1.30;1.20;;;;;;;;;;4530059;28;20037;-63
2022/12/15 06:13:33;;;;;;;1.40;1.30;;;;;;;;;;4548404;28;20131;-64
2022/12/15 06:15:52;;;;;;;1.40;1.30;;;;;;;;;;4548339;28;20051;-64
2022/12/15 06:18:02;;;;;;;1.52;1.33;;;;;;;;;;4547765;28;20028;-63
2022/12/15 06:20:13;;;;;;;1.40;1.30;;;;;;;;;;4532776;28;21027;-63
2022/12/15 06:22:23;;;;;;;1.50;1.33;;;;;;;;;;4546815;28;20021;-63
2022/12/15 06:24:33;;;;;;;1.40;1.30;;;;;;;;;;4548583;28;20043;-63
2022/12/15 06:26:44;;;;;;;1.55;1.45;;;;;;;;;;4547555;28;20064;-63
2022/12/15 06:28:56;;;;;;;1.60;1.50;;;;;;;;;;4547475;28;20032;-64
2022/12/15 06:31:07;;;;;;;1.48;1.38;;;;;;;;;;4549448;28;20045;-63
2022/12/15 06:33:18;;;;;;;1.40;1.30;;;;;;;;;;4547373;28;20583;-63
2022/12/15 06:35:29;;;;;;;1.58;1.48;;;;;;;;;;4548116;28;21090;-65
2022/12/15 06:37:39;;;;;;;1.20;1.10;;;;;;;;;;4546554;28;20084;-64
2022/12/15 06:39:49;;;;;;;1.30;1.20;;;;;;;;;;4546845;28;20044;-64
2022/12/15 06:42:00;;;;;;;1.30;1.20;;;;;;;;;;4536292;28;20040;-63
2022/12/15 06:44:14;;;;;;;1.35;1.25;;;;;;;;;;4532642;28;20037;-64
2022/12/15 06:46:25;;;;;;;1.67;1.48;;;;;;;;;;4547458;28;20036;-63
2022/12/15 06:48:35;;;;;;;1.52;1.42;;;;;;;;;;4545967;28;20071;-64
2022/12/15 06:50:46;;;;;;;1.40;1.30;;;;;;;;;;4547473;28;20033;-63
2022/12/15 06:52:57;;;;;;;1.38;1.27;;;;;;;;;;4537917;28;20044;-63
2022/12/15 06:55:07;;;;;;;1.30;1.20;;;;;;;;;;4546534;28;20173;-63
2022/12/15 06:57:18;;;;;;;1.50;1.40;;;;;;;;;;4546673;28;20808;-63
2022/12/15 06:59:28;;;;;;;1.40;1.30;;;;;;;;;;4539991;28;20029;-63
2022/12/15 07:01:40;;;;;;;1.20;1.10;;;;;;;;;;4545732;28;20044;-64
2022/12/15 07:03:51;;;;;;;1.60;1.50;;;;;;;;;;4547190;28;20025;-63
2022/12/15 07:06:03;;;;;;;1.30;1.20;;;;;;;;;;4546973;28;20150;-63
2022/12/15 07:08:14;;;;;;;1.50;1.40;;;;;;;;;;4547153;28;20135;-63
2022/12/15 07:10:24;;;;;;;1.20;1.10;;;;;;;;;;4547176;28;20617;-63
2022/12/15 07:12:35;;;;;;;1.20;1.10;;;;;;;;;;4530376;28;20906;-63
2022/12/15 07:14:45;;;;;;;1.30;1.20;;;;;;;;;;4546784;28;20055;-63
2022/12/15 07:16:55;;;;;;;1.30;1.20;;;;;;;;;;4546174;28;20139;-63
2022/12/15 07:19:09;;;;;;;1.40;1.27;;;;;;;;;;4546170;28;20033;-63
2022/12/15 07:21:20;;;;;;;1.50;1.40;;;;;;;;;;4547365;28;20036;-63
2022/12/15 07:23:31;;;;;;;1.60;1.50;;;;;;;;;;4546455;28;20033;-63
2022/12/15 07:25:41;;;;;;;1.35;1.23;;;;;;;;;;4545601;28;20037;-63
2022/12/15 07:27:51;;;;;;;1.35;1.25;;;;;;;;;;4526803;28;20081;-63
2022/12/15 07:30:02;;;;;;;1.40;1.30;;;;;;;;;;4547455;28;20575;-63
2022/12/15 07:32:12;;;;;;;1.58;1.40;;;;;;;;;;4545893;28;20084;-63
2022/12/15 07:34:23;;;;;;;1.33;1.23;;;;;;;;;;4546824;28;20527;-63
2022/12/15 07:36:33;;;;;;;1.30;1.20;;;;;;;;;;4543400;28;20068;-63
2022/12/15 07:38:44;;;;;;;1.50;1.35;;;;;;;;;;4547106;28;20041;-63
2022/12/15 07:40:58;;;;;;;1.33;1.23;;;;;;;;;;4546392;28;20056;-63
2022/12/15 07:43:09;;;;;;;1.27;1.17;;;;;;;;;;4546952;28;21099;-63
2022/12/15 07:45:19;;;;;;;1.20;1.10;;;;;;;;;;4544149;28;20029;-63
2022/12/15 07:47:30;;;;;;;1.50;1.40;;;;;;;;;;4545724;28;20037;-63
2022/12/15 07:49:40;;;;;;;1.30;1.20;;;;;;;;;;4544504;28;20296;-63
2022/12/15 07:51:51;;;;;;;1.33;1.23;;;;;;;;;;4535303;28;20040;-63
2022/12/15 07:54:01;;;;;;;1.38;1.27;;;;;;;;;;4545331;28;20036;-63
2022/12/15 07:56:11;;;;;;;1.40;1.30;;;;;;;;;;4546134;28;20083;-63
2022/12/15 07:58:22;;;;;;;1.55;1.30;;;;;;;;;;4545718;28;20207;-63
2022/12/15 08:00:32;;;;;;;1.35;1.25;;;;;;;;;;4545663;28;20040;-63
2022/12/15 08:02:42;;;;;;;1.20;1.10;;;;;;;;;;4545864;28;20041;-63
2022/12/15 08:04:53;;;;;;;1.52;1.30;;;;;;;;;;4529766;28;20077;-63
2022/12/15 08:07:03;;;;;;;1.50;1.40;;;;;;;;;;4545637;28;20472;-63
2022/12/15 08:09:13;;;;;;;1.08;0.98;;;;;;;;;;4545640;28;20051;-63
2022/12/15 08:11:24;;;;;;;1.38;1.27;;;;;;;;;;4546060;28;20052;-63
2022/12/15 08:13:35;;;;;;;1.60;1.42;;;;;;;;;;4547559;28;20135;-63
2022/12/15 08:15:46;;;;;;;1.40;1.30;;;;;;;;;;4546735;28;20088;-63
2022/12/15 08:17:56;;;;;;;1.50;1.40;;;;;;;;;;4545714;28;20785;-63
2022/12/15 08:20:07;;;;;;;1.30;1.20;;;;;;;;;;4545272;28;20036;-63
2022/12/15 08:22:17;;;;;;;1.10;1.00;;;;;;;;;;4545821;28;20036;-63
2022/12/15 08:24:27;;;;;;;1.30;1.20;;;;;;;;;;4545834;28;20485;-63
2022/12/15 08:26:39;;;;;;;1.20;1.10;;;;;;;;;;4545272;28;20037;-63
2022/12/15 08:28:49;;;;;;;1.30;1.20;;;;;;;;;;4547006;28;20098;-63
2022/12/15 08:31:03;;;;;;;1.33;1.20;;;;;;;;;;4544915;28;20136;-63
2022/12/15 08:33:14;;;;;;;1.58;1.30;;;;;;;;;;4538481;28;20029;-63
2022/12/15 08:35:24;;;;;;;1.50;1.40;;;;;;;;;;4545556;28;20040;-63
2022/12/15 08:37:34;;;;;;;1.42;1.30;;;;;;;;;;4545528;28;20611;-62
2022/12/15 08:39:44;;;;;;;1.40;1.30;;;;;;;;;;4543832;28;20111;-63
2022/12/15 08:41:55;;;;;;;1.30;1.20;;;;;;;;;;4530790;28;20091;-62
2022/12/15 08:44:05;;;;;;;1.20;1.10;;;;;;;;;;4545073;28;20051;-63
2022/12/15 08:46:17;;;;;;;1.30;1.20;;;;;;;;;;4544934;28;20025;-63
2022/12/15 08:48:28;;;;;;;1.27;1.08;;;;;;;;;;4546715;28;20048;-63
2022/12/15 08:50:41;;;;;;;1.10;0.98;;;;;;;;;;4543933;28;20047;-63
2022/12/15 08:52:52;;;;;;;1.30;1.20;;;;;;;;;;4543760;28;20059;-63
2022/12/15 08:55:02;;;;;;;1.20;1.10;;;;;;;;;;4543587;28;20055;-63
2022/12/15 08:57:13;;;;;;;1.30;1.20;;;;;;;;;;4546011;28;20033;-63
2022/12/15 08:59:23;;;;;;;1.40;1.30;;;;;;;;;;4544611;28;20567;-63
2022/12/15 09:01:38;;;;;;;1.20;1.10;;;;;;;;;;4545894;28;20029;-64
2022/12/15 09:03:48;;;;;;;1.30;1.20;;;;;;;;;;4543965;28;20140;-63
2022/12/15 09:06:06;;;;;;;1.35;1.10;;;;;;;;;;4544903;28;20042;-63
2022/12/15 09:08:16;;;;;;;1.13;1.05;;;;;;;;;;4545960;28;20024;-63
2022/12/15 09:10:27;;;;;;;1.27;1.17;;;;;;;;;;4545480;28;20037;-64
2022/12/15 09:12:37;;;;;;;1.38;1.27;;;;;;;;;;4528470;28;20516;-63
2022/12/15 09:14:47;;;;;;;1.33;1.23;;;;;;;;;;4545196;28;20044;-63
2022/12/15 09:16:58;;;;;;;1.20;1.10;;;;;;;;;;4543044;28;20029;-63
2022/12/15 09:19:08;;;;;;;1.30;1.20;;;;;;;;;;4531972;28;20049;-63
2022/12/15 09:21:21;;;;;;;1.40;1.30;;;;;;;;;;4549241;28;20246;-63
2022/12/15 09:23:32;;;;;;;1.45;1.15;;;;;;;;;;4546366;28;20191;-63
2022/12/15 09:25:43;;;;;;;1.10;1.05;;;;;;;;;;4547544;28;20238;-63
2022/12/15 09:27:53;;;;;;;1.45;1.25;;;;;;;;;;4547306;28;20063;-63
2022/12/15 09:30:04;;;;;;;1.17;1.00;;;;;;;;;;4548713;28;20052;-63
2022/12/15 09:32:14;;;;;;;1.30;1.10;;;;;;;;;;4547393;28;20025;-63
2022/12/15 09:34:24;;;;;;;1.40;1.15;;;;;;;;;;4546782;28;20033;-63
2022/12/15 09:36:35;;;;;;;1.42;1.10;;;;;;;;;;4547755;28;20045;-63
2022/12/15 09:38:45;;;;;;;1.30;1.20;;;;;;;;;;4547690;28;20029;-63
2022/12/15 09:40:56;;;;;;;1.30;1.20;;;;;;;;;;4547212;28;20032;-63
2022/12/15 09:43:11;;;;;;;1.30;1.20;;;;;;;;;;4548800;28;20044;-63
2022/12/15 09:45:24;;;;;;;1.30;1.20;;;;;;;;;;4548244;28;20032;-63
2022/12/15 09:47:50;;;;;;;1.30;1.20;;;;;;;;;;4547824;28;20076;-63
2022/12/15 09:50:03;;;;;;;1.20;1.10;;;;;;;;;;4533913;28;20710;-63
2022/12/15 09:52:15;;;;;;;1.50;1.20;;;;;;;;;;4546122;28;20469;-63
2022/12/15 09:54:29;;;;;;;1.38;1.27;;;;;;;;;;4548572;28;21004;-63
2022/12/15 09:56:48;;;;;;;1.30;1.20;;;;;;;;;;4548260;28;20033;-63
2022/12/15 09:59:05;;;;;;;1.35;1.20;;;;;;;;;;4534702;28;20596;-63
2022/12/15 10:01:15;;;;;;;1.25;1.15;;;;;;;;;;4549465;28;20028;-63
2022/12/15 10:03:34;;;;;;;1.05;0.95;;;;;;;;;;4531414;28;20477;-63
2022/12/15 10:05:51;;;;;;;1.20;1.10;;;;;;;;;;4548155;28;20107;-63
2022/12/15 10:08:01;;;;;;;1.30;1.20;;;;;;;;;;4547650;28;20041;-63
2022/12/15 10:10:16;;;;;;;1.30;1.20;;;;;;;;;;4536788;28;20049;-63
2022/12/15 10:12:33;;;;;;;1.65;1.30;;;;;;;;;;4533937;28;20620;-63
2022/12/15 10:14:43;;;;;;;1.30;1.20;;;;;;;;;;4548075;28;20033;-63
2022/12/15 10:17:03;;;;;;;1.50;1.20;;;;;;;;;;4548580;28;20040;-64
2022/12/15 10:19:33;;;;;;;1.23;1.13;;;;;;;;;;4532422;28;20062;-64
2022/12/15 10:21:44;;;;;;;1.20;1.10;;;;;;;;;;4518847;28;20181;-63
2022/12/15 10:23:57;;;;;;;1.25;1.13;;;;;;;;;;4547693;28;20761;-64
2022/12/15 10:26:19;;;;;;;1.52;1.20;;;;;;;;;;4548055;28;20045;-64
2022/12/15 10:28:38;;;;;;;1.30;1.20;;;;;;;;;;4548770;28;20674;-64
2022/12/15 10:30:52;;;;;;;1.40;1.30;;;;;;;;;;4546077;28;20639;-64
2022/12/15 10:33:23;;;;;;;1.30;1.17;;;;;;;;;;4545933;28;20037;-64
2022/12/15 10:35:34;;;;;;;1.48;1.00;;;;;;;;;;4547132;28;20052;-64
2022/12/15 10:37:45;;;;;;;1.40;1.30;;;;;;;;;;4548587;28;20041;-64
2022/12/15 10:39:55;;;;;;;1.30;1.20;;;;;;;;;;4547304;28;20560;-63
2022/12/15 10:42:31;;;;;;;1.52;1.20;;;;;;;;;;4546750;28;20032;-63
2022/12/15 10:44:43;;;;;;;1.20;1.10;;;;;;;;;;4543255;28;20065;-64
2022/12/15 10:46:54;;;;;;;1.45;1.33;;;;;;;;;;4533537;28;20072;-64
2022/12/15 10:49:05;;;;;;;1.20;1.10;;;;;;;;;;4546800;28;20259;-64
2022/12/15 10:51:17;;;;;;;1.20;1.10;;;;;;;;;;4547868;28;20068;-64
2022/12/15 10:53:38;;;;;;;1.30;1.20;;;;;;;;;;4547400;28;20662;-64
2022/12/15 10:55:57;;;;;;;1.40;1.08;;;;;;;;;;4545234;28;20048;-64
2022/12/15 10:58:21;;;;;;;1.30;1.20;;;;;;;;;;4546952;28;20088;-64
2022/12/15 11:00:32;;;;;;;1.13;1.02;;;;;;;;;;4537378;28;20063;-64
2022/12/15 11:02:42;;;;;;;1.30;1.17;;;;;;;;;;4546807;28;20104;-64
2022/12/15 11:05:00;;;;;;;1.30;1.20;;;;;;;;;;4546203;28;20033;-64
2022/12/15 11:07:12;;;;;;;1.42;1.15;;;;;;;;;;4546210;28;20032;-64
2022/12/15 11:09:25;;;;;;;1.20;1.10;;;;;;;;;;4545835;28;20131;-64
2022/12/15 11:14:18;;;;;;;1.25;1.10;;;;;;;;;;4546028;28;20043;-64
2022/12/15 11:16:29;;;;;;;1.30;1.20;;;;;;;;;;4544782;28;20591;-64
2022/12/15 11:18:43;;;;;;;1.30;1.20;;;;;;;;;;4531439;28;20038;-64
2022/12/15 11:21:06;;;;;;;1.33;1.20;;;;;;;;;;4548579;28;20045;-64
2022/12/15 11:23:19;;;;;;;1.17;1.08;;;;;;;;;;4547171;28;20756;-64
2022/12/15 11:25:29;;;;;;;1.10;1.00;;;;;;;;;;4547015;28;20659;-64
2022/12/15 11:27:42;;;;;;;1.20;1.10;;;;;;;;;;4545732;28;20052;-64
2022/12/15 11:29:56;;;;;;;1.33;1.10;;;;;;;;;;4546833;28;20040;-64
2022/12/15 11:32:09;;;;;;;0.90;0.90;;;;;;;;;;4545929;28;20791;-64
2022/12/15 11:34:20;;;;;;;1.20;1.10;;;;;;;;;;4544200;28;20111;-64
2022/12/15 11:36:34;;;;;;;1.20;1.10;;;;;;;;;;4546541;28;20044;-64
2022/12/15 11:38:56;;;;;;;1.00;0.90;;;;;;;;;;4546546;28;20122;-64
2022/12/15 11:41:26;;;;;;;1.30;1.20;;;;;;;;;;4547189;28;20072;-64
2022/12/15 11:43:55;;;;;;;1.10;1.00;;;;;;;;;;4545545;28;20660;-64
2022/12/15 11:46:05;;;;;;;1.30;1.20;;;;;;;;;;4546821;28;20096;-63
2022/12/15 11:48:18;;;;;;;1.10;1.00;;;;;;;;;;4537849;28;20037;-64
2022/12/15 11:50:41;;;;;;;1.27;1.10;;;;;;;;;;4545751;28;20151;-64
2022/12/15 11:53:27;;;;;;;1.58;1.33;;;;;;;;;;4545600;28;20128;-64
2022/12/15 11:55:37;;;;;;;1.10;1.00;;;;;;;;;;4509060;28;20081;-63
2022/12/15 11:57:50;;;;;;;1.23;1.13;;;;;;;;;;4533070;28;20572;-64
2022/12/15 12:00:07;;;;;;;1.25;1.15;;;;;;;;;;4543480;28;20662;-63
2022/12/15 12:02:42;;;;;;;1.30;1.20;;;;;;;;;;4545946;28;20064;-63
2022/12/15 12:05:11;;;;;;;1.30;1.20;;;;;;;;;;4545950;28;20626;-63
2022/12/15 12:07:22;;;;;;;1.20;1.10;;;;;;;;;;4544416;28;20694;-63
2022/12/15 12:09:38;;;;;;;1.30;1.10;;;;;;;;;;4546194;28;21328;-63
2022/12/15 12:11:49;;;;;;;1.13;1.02;;;;;;;;;;4546439;28;20052;-63
2022/12/15 12:14:11;;;;;;;1.30;1.20;;;;;;;;;;4547275;28;20116;-63
2022/12/15 12:16:27;;;;;;;1.23;1.13;;;;;;;;;;4545810;28;20103;-63
2022/12/15 12:18:45;;;;;;;1.05;0.90;;;;;;;;;;4544087;28;20509;-63
2022/12/15 12:20:59;;;;;;;1.38;1.15;;;;;;;;;;4547307;28;20165;-63
2022/12/15 12:23:18;;;;;;;1.20;1.10;;;;;;;;;;4527327;28;20041;-63
2022/12/15 12:25:29;;;;;;;1.17;1.08;;;;;;;;;;4527236;28;20109;-63
2022/12/15 12:27:44;;;;;;;1.30;1.20;;;;;;;;;;4545589;28;20575;-63
2022/12/15 12:29:59;;;;;;;0.88;0.88;;;;;;;;;;4544343;28;20580;-63
2022/12/15 12:32:14;;;;;;;1.38;1.27;;;;;;;;;;4547585;28;20663;-63
2022/12/15 12:34:30;;;;;;;1.20;1.10;;;;;;;;;;4544618;28;20025;-63
2022/12/15 12:36:42;;;;;;;0.95;0.95;;;;;;;;;;4545596;28;20098;-62
2022/12/15 12:38:54;;;;;;;1.30;1.13;;;;;;;;;;4543607;28;20140;-63
2022/12/15 12:41:19;;;;;;;1.00;1.00;;;;;;;;;;4545186;28;20064;-62
2022/12/15 12:43:35;;;;;;;1.23;1.10;;;;;;;;;;4547629;28;20999;-62
2022/12/15 12:45:54;;;;;;;1.10;1.00;;;;;;;;;;4546124;28;20021;-62
2022/12/15 12:48:13;;;;;;;1.10;1.00;;;;;;;;;;4528056;28;20045;-62
2022/12/15 12:50:25;;;;;;;1.10;1.00;;;;;;;;;;4531560;28;20124;-62
2022/12/15 12:52:36;;;;;;;1.10;1.00;;;;;;;;;;4545124;28;20074;-62
2022/12/15 12:54:51;;;;;;;1.10;1.00;;;;;;;;;;4543480;28;20632;-62
2022/12/15 12:57:21;;;;;;;1.17;1.08;;;;;;;;;;4544713;28;20028;-62
2022/12/15 12:59:35;;;;;;;1.10;1.00;;;;;;;;;;4543121;28;20587;-62
2022/12/15 13:01:45;;;;;;;1.25;1.10;;;;;;;;;;4545437;28;20033;-62
2022/12/15 13:04:28;;;;;;;1.67;1.10;;;;;;;;;;4546454;28;20493;-62
2022/12/15 13:06:38;;;;;;;1.20;1.10;;;;;;;;;;4511363;28;20617;-62
2022/12/15 13:08:50;;;;;;;1.00;0.90;;;;;;;;;;4545464;28;20121;-61
2022/12/15 13:11:20;;;;;;;1.20;1.10;;;;;;;;;;4545867;28;20032;-62
2022/12/15 13:13:30;;;;;;;1.10;1.00;;;;;;;;;;4545790;28;20148;-62
2022/12/15 13:15:42;;;;;;;1.10;1.00;;;;;;;;;;4534610;28;20073;-62
2022/12/15 13:18:03;;;;;;;1.10;1.00;;;;;;;;;;4544806;28;20037;-62
2022/12/15 13:20:16;;;;;;;0.90;0.90;;;;;;;;;;4543651;28;20040;-62
2022/12/15 13:22:30;;;;;;;1.00;0.90;;;;;;;;;;4544511;28;20575;-62
2022/12/15 13:24:45;;;;;;;1.00;0.90;;;;;;;;;;4545245;28;20040;-62
2022/12/15 13:27:03;;;;;;;1.10;1.00;;;;;;;;;;4543595;28;20041;-62
2022/12/15 13:29:14;;;;;;;1.10;1.00;;;;;;;;;;4544527;28;20044;-61
2022/12/15 13:31:26;;;;;;;1.10;1.00;;;;;;;;;;4545294;28;20080;-62
2022/12/15 13:33:48;;;;;;;1.10;1.00;;;;;;;;;;4545395;28;20037;-62
2022/12/15 13:35:59;;;;;;;0.98;0.98;;;;;;;;;;4545548;28;20043;-62
2022/12/15 13:38:17;;;;;;;1.10;0.90;;;;;;;;;;4544023;28;20512;-62
2022/12/15 13:40:33;;;;;;;0.90;0.90;;;;;;;;;;4545913;28;20111;-62
2022/12/15 13:42:44;;;;;;;1.15;1.02;;;;;;;;;;4545359;28;20607;-62
2022/12/15 13:45:02;;;;;;;0.95;0.85;;;;;;;;;;4543862;28;20033;-62
2022/12/15 13:47:19;;;;;;;0.82;0.82;;;;;;;;;;4544680;28;20103;-62
2022/12/15 13:49:33;;;;;;;1.05;1.00;;;;;;;;;;4543534;28;20048;-62
2022/12/15 13:51:44;;;;;;;1.02;1.00;;;;;;;;;;4536270;28;20045;-62
2022/12/15 13:53:55;;;;;;;1.35;1.00;;;;;;;;;;4543475;28;20033;-63
2022/12/15 13:56:25;;;;;;;1.00;0.90;;;;;;;;;;4545863;28;20021;-63
2022/12/15 13:58:42;;;;;;;1.00;0.90;;;;;;;;;;4543629;28;20052;-63
2022/12/15 14:00:55;;;;;;;0.98;0.90;;;;;;;;;;4545667;28;20036;-63
2022/12/15 14:03:06;;;;;;;1.10;1.00;;;;;;;;;;4544555;28;20088;-62
2022/12/15 14:05:20;;;;;;;0.88;0.88;;;;;;;;;;4544216;28;20033;-63
2022/12/15 14:07:32;;;;;;;0.90;0.90;;;;;;;;;;4545406;28;20043;-62
2022/12/15 14:09:42;;;;;;;1.10;0.90;;;;;;;;;;4544324;28;20050;-63
2022/12/15 14:11:52;;;;;;;0.80;0.80;;;;;;;;;;4546835;28;20044;-62
2022/12/15 14:14:03;;;;;;;1.00;0.90;;;;;;;;;;4547504;28;20045;-63
2022/12/15 14:16:18;;;;;;;1.00;0.90;;;;;;;;;;4547412;28;20472;-62
2022/12/15 14:18:30;;;;;;;1.00;0.90;;;;;;;;;;4545755;28;20025;-64
2022/12/15 14:20:41;;;;;;;1.42;0.90;;;;;;;;;;4526913;28;20148;-62
2022/12/15 14:22:53;;;;;;;1.20;1.10;;;;;;;;;;4545766;28;20045;-62
2022/12/15 14:25:13;;;;;;;1.15;1.05;;;;;;;;;;4547080;28;20151;-62
2022/12/15 14:27:24;;;;;;;1.20;1.10;;;;;;;;;;4547349;28;20100;-62
2022/12/15 14:29:34;;;;;;;1.10;1.00;;;;;;;;;;4547833;28;20041;-62
2022/12/15 14:31:47;;;;;;;1.00;0.90;;;;;;;;;;4512096;28;20034;-62
2022/12/15 14:34:16;;;;;;;0.93;0.90;;;;;;;;;;4545623;28;20123;-62
2022/12/15 14:36:26;;;;;;;1.10;1.00;;;;;;;;;;4547320;28;20032;-63
2022/12/15 14:38:52;;;;;;;1.08;0.90;;;;;;;;;;4532740;28;20617;-62
2022/12/15 14:41:03;;;;;;;1.08;0.93;;;;;;;;;;4546332;28;20614;-63
2022/12/15 14:43:21;;;;;;;1.10;1.00;;;;;;;;;;4547589;28;20110;-63
2022/12/15 14:45:31;;;;;;;1.05;0.98;;;;;;;;;;4548419;28;20045;-62
2022/12/15 14:47:51;;;;;;;0.90;0.90;;;;;;;;;;4547613;28;20025;-63
2022/12/15 14:50:02;;;;;;;1.10;1.00;;;;;;;;;;4548044;28;20069;-63
2022/12/15 14:52:25;;;;;;;1.30;1.00;;;;;;;;;;4528366;28;20037;-63
2022/12/15 14:54:37;;;;;;;1.45;1.00;;;;;;;;;;4548675;28;20051;-63
2022/12/15 14:56:55;;;;;;;0.82;0.82;;;;;;;;;;4547723;28;20131;-63
2022/12/15 14:59:18;;;;;;;1.05;1.00;;;;;;;;;;4548461;28;20037;-63
2022/12/15 15:01:32;;;;;;;1.10;1.00;;;;;;;;;;4545028;28;20044;-63
2022/12/15 15:03:43;;;;;;;1.02;0.93;;;;;;;;;;4547867;28;20041;-63
2022/12/15 15:06:02;;;;;;;0.85;0.80;;;;;;;;;;4548102;28;20036;-63
2022/12/15 15:08:13;;;;;;;1.10;1.00;;;;;;;;;;4548551;28;20032;-63
2022/12/15 15:10:27;;;;;;;0.82;0.82;;;;;;;;;;4547081;28;20044;-63
2022/12/15 15:12:40;;;;;;;1.20;0.90;;;;;;;;;;4546029;28;20036;-63
2022/12/15 15:14:58;;;;;;;0.80;0.80;;;;;;;;;;4545991;28;20040;-63
2022/12/15 15:17:12;;;;;;;0.93;0.80;;;;;;;;;;4529569;28;20114;-63
2022/12/15 15:19:22;;;;;;;0.90;0.90;;;;;;;;;;4547411;28;20037;-63
2022/12/15 15:21:36;;;;;;;0.95;0.90;;;;;;;;;;4547682;28;20045;-63
2022/12/15 15:23:59;;;;;;;1.10;1.00;;;;;;;;;;4546598;28;20056;-63
2022/12/15 15:26:15;;;;;;;0.95;0.90;;;;;;;;;;4546098;28;20037;-64
2022/12/15 15:28:26;;;;;;;0.80;0.80;;;;;;;;;;4531772;28;20128;-63
2022/12/15 15:30:42;;;;;;;0.80;0.80;;;;;;;;;;4548456;28;20048;-63
2022/12/15 15:32:57;;;;;;;0.95;0.88;;;;;;;;;;4546750;28;20024;-63
2022/12/15 15:35:07;;;;;;;0.98;0.90;;;;;;;;;;4546588;28;20226;-63
2022/12/15 15:37:24;;;;;;;0.80;0.80;;;;;;;;;;4547323;28;20531;-63
2022/12/15 15:39:34;;;;;;;1.00;0.90;;;;;;;;;;4546837;28;20036;-63
2022/12/15 15:41:44;;;;;;;1.10;1.00;;;;;;;;;;4546456;28;20477;-63